Terminal Aerodrome Forecast
Issued by NWS

Home | Current Version | Previous Version | Text Only | Print | Product List | Glossary On
Versions: 1 2 3 4 5 6 7 8 9 10 11 12 13 14 15 16 17 18 19 20 21 22 23 24 25 26 27 28 29 30
460
FTUS41 KBOX 131139
TAFBED
TAF
KBED 131139Z 1312/1412 VRB03KT P6SM BKN150
     FM131900 13004KT P6SM OVC030
     FM140000 11005KT 4SM -RA BR OVC015
     FM140200 11005KT 2SM -RA BR OVC008
     FM140400 08005KT 1 1/2SM -RA BR OVC008
     FM140500 08005KT 3/4SM -RA BR OVC008 WS020/12035KT=

USA.gov is the U.S. government's official web portal to all federal, state and local government web resources and services.